sensor_id;sensor_type;location;lat;lon;timestamp;pressure;altitude;pressure_sealevel;temperature;humidity
54556;BME280;57291;37.520;15.106;2023-01-25T00:00:29;101620.56;;;9.77;99.57
54556;BME280;57291;37.520;15.106;2023-01-25T00:02:56;101618.38;;;9.74;99.61
54556;BME280;57291;37.520;15.106;2023-01-25T00:05:24;101619.47;;;9.73;100.00
54556;BME280;57291;37.520;15.106;2023-01-25T00:07:51;101613.53;;;9.71;100.00
54556;BME280;57291;37.520;15.106;2023-01-25T00:10:18;101608.06;;;9.66;100.00
54556;BME280;57291;37.520;15.106;2023-01-25T00:12:46;101607.78;;;9.67;100.00
54556;BME280;57291;37.520;15.106;2023-01-25T00:15:13;101611.06;;;9.69;100.00
54556;BME280;57291;37.520;15.106;2023-01-25T00:17:40;101604.25;;;9.67;100.00
54556;BME280;57291;37.520;15.106;2023-01-25T00:20:09;101616.75;;;9.62;100.00
54556;BME280;57291;37.520;15.106;2023-01-25T00:22:36;101602.59;;;9.60;100.00
54556;BME280;57291;37.520;15.106;2023-01-25T00:25:04;101606.41;;;9.54;100.00
54556;BME280;57291;37.520;15.106;2023-01-25T00:27:31;101602.88;;;9.54;100.00
54556;BME280;57291;37.520;15.106;2023-01-25T00:29:59;101598.28;;;9.54;100.00
54556;BME280;57291;37.520;15.106;2023-01-25T00:32:40;101598.28;;;9.54;100.00
54556;BME280;57291;37.520;15.106;2023-01-25T00:35:11;101595.53;;;9.49;100.00
54556;BME280;57291;37.520;15.106;2023-01-25T00:37:42;101612.09;;;9.48;100.00
54556;BME280;57291;37.520;15.106;2023-01-25T00:40:10;101608.25;;;9.44;100.00
54556;BME280;57291;37.520;15.106;2023-01-25T00:42:39;101608.78;;;9.40;100.00
54556;BME280;57291;37.520;15.106;2023-01-25T00:45:08;101599.84;;;9.40;100.00
54556;BME280;57291;37.520;15.106;2023-01-25T00:47:36;101595.50;;;9.39;100.00
54556;BME280;57291;37.520;15.106;2023-01-25T00:50:05;101586.56;;;9.38;100.00
54556;BME280;57291;37.520;15.106;2023-01-25T00:52:33;101585.22;;;9.41;100.00
54556;BME280;57291;37.520;15.106;2023-01-25T00:55:01;101584.13;;;9.47;100.00
54556;BME280;57291;37.520;15.106;2023-01-25T00:57:28;101586.31;;;9.45;100.00
54556;BME280;57291;37.520;15.106;2023-01-25T00:59:56;101584.38;;;9.40;100.00
54556;BME280;57291;37.520;15.106;2023-01-25T01:02:23;101587.31;;;9.34;100.00
54556;BME280;57291;37.520;15.106;2023-01-25T01:04:51;101579.72;;;9.26;100.00
54556;BME280;57291;37.520;15.106;2023-01-25T01:07:19;101567.22;;;9.20;100.00
54556;BME280;57291;37.520;15.106;2023-01-25T01:09:46;101554.19;;;9.16;100.00
54556;BME280;57291;37.520;15.106;2023-01-25T01:12:13;101550.13;;;9.19;100.00
54556;BME280;57291;37.520;15.106;2023-01-25T01:14:40;101548.75;;;9.16;100.00
54556;BME280;57291;37.520;15.106;2023-01-25T01:17:08;101542.81;;;9.20;100.00
54556;BME280;57291;37.520;15.106;2023-01-25T01:19:35;101542.56;;;9.26;100.00
54556;BME280;57291;37.520;15.106;2023-01-25T01:22:02;101543.38;;;9.27;100.00
54556;BME280;57291;37.520;15.106;2023-01-25T01:24:29;101548.81;;;9.32;100.00
54556;BME280;57291;37.520;15.106;2023-01-25T01:26:57;101553.16;;;9.33;100.00
54556;BME280;57291;37.520;15.106;2023-01-25T01:29:24;101556.44;;;9.35;100.00
54556;BME280;57291;37.520;15.106;2023-01-25T01:31:51;101548.53;;;9.33;100.00
54556;BME280;57291;37.520;15.106;2023-01-25T01:34:24;101540.16;;;9.35;100.00
54556;BME280;57291;37.520;15.106;2023-01-25T01:36:53;101540.16;;;9.40;100.00
54556;BME280;57291;37.520;15.106;2023-01-25T01:39:20;101542.31;;;9.43;100.00
54556;BME280;57291;37.520;15.106;2023-01-25T01:41:47;101535.28;;;9.42;100.00
54556;BME280;57291;37.520;15.106;2023-01-25T01:44:17;101529.81;;;9.37;100.00
54556;BME280;57291;37.520;15.106;2023-01-25T01:46:56;101527.09;;;9.27;100.00
54556;BME280;57291;37.520;15.106;2023-01-25T01:49:30;101531.66;;;9.21;100.00
54556;BME280;57291;37.520;15.106;2023-01-25T01:52:16;101529.22;;;9.14;100.00
54556;BME280;57291;37.520;15.106;2023-01-25T01:54:59;101534.63;;;9.09;100.00
54556;BME280;57291;37.520;15.106;2023-01-25T01:57:37;101537.31;;;9.04;100.00
54556;BME280;57291;37.520;15.106;2023-01-25T02:00:11;101544.34;;;9.00;100.00
54556;BME280;57291;37.520;15.106;2023-01-25T02:02:41;101534.56;;;8.94;100.00
54556;BME280;57291;37.520;15.106;2023-01-25T02:05:18;101529.13;;;8.89;100.00
54556;BME280;57291;37.520;15.106;2023-01-25T02:07:48;101519.06;;;8.84;100.00
54556;BME280;57291;37.520;15.106;2023-01-25T02:10:19;101524.53;;;8.89;100.00
54556;BME280;57291;37.520;15.106;2023-01-25T02:12:47;101516.63;;;8.88;100.00
54556;BME280;57291;37.520;15.106;2023-01-25T02:15:15;101515.28;;;8.85;100.00
54556;BME280;57291;37.520;15.106;2023-01-25T02:17:42;101510.13;;;8.84;100.00
54556;BME280;57291;37.520;15.106;2023-01-25T02:20:49;101499.84;;;8.86;100.00
54556;BME280;57291;37.520;15.106;2023-01-25T02:26:08;101503.06;;;8.88;100.00
54556;BME280;57291;37.520;15.106;2023-01-25T02:28:44;101503.91;;;8.88;100.00
54556;BME280;57291;37.520;15.106;2023-01-25T02:31:13;101512.81;;;8.84;100.00
54556;BME280;57291;37.520;15.106;2023-01-25T02:33:40;101494.09;;;8.77;100.00
54556;BME280;57291;37.520;15.106;2023-01-25T02:41:54;101505.13;;;8.60;100.00
54556;BME280;57291;37.520;15.106;2023-01-25T02:44:29;101509.16;;;8.58;100.00
54556;BME280;57291;37.520;15.106;2023-01-25T02:47:02;101514.81;;;8.51;100.00
54556;BME280;57291;37.520;15.106;2023-01-25T02:49:29;101505.03;;;8.45;100.00
54556;BME280;57291;37.520;15.106;2023-01-25T02:51:56;101502.31;;;8.40;100.00
54556;BME280;57291;37.520;15.106;2023-01-25T02:54:24;101496.88;;;8.40;100.00
54556;BME280;57291;37.520;15.106;2023-01-25T02:56:53;101494.72;;;8.42;100.00
54556;BME280;57291;37.520;15.106;2023-01-25T02:59:22;101489.81;;;8.39;100.00
54556;BME280;57291;37.520;15.106;2023-01-25T03:01:53;101485.97;;;8.30;100.00
54556;BME280;57291;37.520;15.106;2023-01-25T03:04:21;101484.00;;;8.25;100.00
54556;BME280;57291;37.520;15.106;2023-01-25T03:06:48;101474.50;;;8.22;100.00
54556;BME280;57291;37.520;15.106;2023-01-25T03:09:17;101472.34;;;8.19;100.00
54556;BME280;57291;37.520;15.106;2023-01-25T03:11:47;101466.91;;;8.14;100.00
54556;BME280;57291;37.520;15.106;2023-01-25T03:14:15;101458.19;;;8.12;100.00
54556;BME280;57291;37.520;15.106;2023-01-25T03:16:42;101447.41;;;8.17;100.00
54556;BME280;57291;37.520;15.106;2023-01-25T03:19:10;101442.53;;;8.14;100.00
54556;BME280;57291;37.520;15.106;2023-01-25T03:21:39;101444.94;;;8.11;100.00
54556;BME280;57291;37.520;15.106;2023-01-25T03:24:08;101442.75;;;8.08;100.00
54556;BME280;57291;37.520;15.106;2023-01-25T03:26:41;101444.13;;;8.10;100.00
54556;BME280;57291;37.520;15.106;2023-01-25T03:30:08;101429.78;;;8.15;100.00
54556;BME280;57291;37.520;15.106;2023-01-25T03:32:35;101428.47;;;8.17;100.00
54556;BME280;57291;37.520;15.106;2023-01-25T03:35:07;101423.63;;;8.19;100.00
54556;BME280;57291;37.520;15.106;2023-01-25T03:37:35;101414.94;;;8.17;100.00
54556;BME280;57291;37.520;15.106;2023-01-25T03:40:04;101415.50;;;8.19;100.00
54556;BME280;57291;37.520;15.106;2023-01-25T03:42:32;101421.72;;;8.25;100.00
54556;BME280;57291;37.520;15.106;2023-01-25T03:44:59;101422.53;;;8.26;100.00
54556;BME280;57291;37.520;15.106;2023-01-25T03:47:27;101422.28;;;8.27;100.00
54556;BME280;57291;37.520;15.106;2023-01-25T03:49:54;101417.44;;;8.29;100.00
54556;BME280;57291;37.520;15.106;2023-01-25T03:55:45;101423.09;;;8.28;100.00
54556;BME280;57291;37.520;15.106;2023-01-25T03:58:15;101421.22;;;8.28;100.00
54556;BME280;57291;37.520;15.106;2023-01-25T04:00:42;101412.84;;;8.30;100.00
54556;BME280;57291;37.520;15.106;2023-01-25T04:03:09;101410.66;;;8.27;100.00
54556;BME280;57291;37.520;15.106;2023-01-25T04:05:37;101425.00;;;8.27;100.00
54556;BME280;57291;37.520;15.106;2023-01-25T04:08:04;101420.34;;;8.22;100.00
54556;BME280;57291;37.520;15.106;2023-01-25T04:10:37;101416.00;;;8.16;100.00
54556;BME280;57291;37.520;15.106;2023-01-25T04:13:05;101418.44;;;8.13;100.00
54556;BME280;57291;37.520;15.106;2023-01-25T04:15:33;101417.34;;;8.14;100.00
54556;BME280;57291;37.520;15.106;2023-01-25T04:18:08;101436.53;;;8.12;100.00
54556;BME280;57291;37.520;15.106;2023-01-25T04:20:36;101428.69;;;8.11;100.00
54556;BME280;57291;37.520;15.106;2023-01-25T04:23:03;101415.13;;;8.06;100.00
54556;BME280;57291;37.520;15.106;2023-01-25T04:25:35;101401.03;;;8.04;100.00
54556;BME280;57291;37.520;15.106;2023-01-25T04:28:08;101405.41;;;8.10;100.00
54556;BME280;57291;37.520;15.106;2023-01-25T04:30:36;101392.69;;;8.15;100.00
54556;BME280;57291;37.520;15.106;2023-01-25T04:33:03;101391.13;;;8.19;100.00
54556;BME280;57291;37.520;15.106;2023-01-25T04:35:31;101401.41;;;8.22;100.00
54556;BME280;57291;37.520;15.106;2023-01-25T04:37:59;101397.06;;;8.16;100.00
54556;BME280;57291;37.520;15.106;2023-01-25T04:40:37;101398.13;;;8.15;100.00
54556;BME280;57291;37.520;15.106;2023-01-25T04:43:05;101409.19;;;8.09;100.00
54556;BME280;57291;37.520;15.106;2023-01-25T04:45:33;101420.53;;;8.06;100.00
54556;BME280;57291;37.520;15.106;2023-01-25T04:48:09;101418.09;;;8.04;100.00
54556;BME280;57291;37.520;15.106;2023-01-25T04:50:43;101438.13;;;8.03;100.00
54556;BME280;57291;37.520;15.106;2023-01-25T04:53:12;101435.97;;;8.05;100.00
54556;BME280;57291;37.520;15.106;2023-01-25T04:55:44;101427.59;;;8.07;100.00
54556;BME280;57291;37.520;15.106;2023-01-25T04:58:12;101429.50;;;8.06;100.00
54556;BME280;57291;37.520;15.106;2023-01-25T05:00:41;101432.50;;;8.10;100.00
54556;BME280;57291;37.520;15.106;2023-01-25T05:03:09;101435.44;;;8.08;100.00
54556;BME280;57291;37.520;15.106;2023-01-25T05:05:37;101430.03;;;8.08;100.00
54556;BME280;57291;37.520;15.106;2023-01-25T05:08:09;101433.31;;;8.10;100.00
54556;BME280;57291;37.520;15.106;2023-01-25T05:10:36;101433.31;;;8.15;100.00
54556;BME280;57291;37.520;15.106;2023-01-25T05:13:36;101430.13;;;8.23;100.00
54556;BME280;57291;37.520;15.106;2023-01-25T05:16:12;101435.84;;;8.32;100.00
54556;BME280;57291;37.520;15.106;2023-01-25T05:18:40;101437.78;;;8.37;100.00
54556;BME280;57291;37.520;15.106;2023-01-25T05:21:35;101431.88;;;8.40;100.00
54556;BME280;57291;37.520;15.106;2023-01-25T05:24:20;101421.84;;;8.45;100.00
54556;BME280;57291;37.520;15.106;2023-01-25T05:26:47;101422.41;;;8.48;100.00
54556;BME280;57291;37.520;15.106;2023-01-25T05:29:39;101427.59;;;8.49;100.00
54556;BME280;57291;37.520;15.106;2023-01-25T05:34:40;101412.38;;;8.43;100.00
54556;BME280;57291;37.520;15.106;2023-01-25T05:37:09;101412.59;;;8.36;100.00
54556;BME280;57291;37.520;15.106;2023-01-25T05:39:40;101406.84;;;8.28;100.00
54556;BME280;57291;37.520;15.106;2023-01-25T05:42:13;101400.88;;;8.20;100.00
54556;BME280;57291;37.520;15.106;2023-01-25T05:44:41;101407.31;;;8.14;100.00
54556;BME280;57291;37.520;15.106;2023-01-25T05:47:15;101409.44;;;8.07;100.00
54556;BME280;57291;37.520;15.106;2023-01-25T05:49:43;101396.16;;;8.01;100.00
54556;BME280;57291;37.520;15.106;2023-01-25T05:52:17;101400.75;;;8.00;100.00
54556;BME280;57291;37.520;15.106;2023-01-25T05:54:44;101390.44;;;7.97;100.00
54556;BME280;57291;37.520;15.106;2023-01-25T05:57:14;101389.38;;;7.98;100.00
54556;BME280;57291;37.520;15.106;2023-01-25T05:59:41;101392.34;;;7.96;100.00
54556;BME280;57291;37.520;15.106;2023-01-25T06:02:11;101389.63;;;7.96;100.00
54556;BME280;57291;37.520;15.106;2023-01-25T06:04:39;101386.66;;;7.98;100.00
54556;BME280;57291;37.520;15.106;2023-01-25T06:07:08;101389.41;;;8.03;100.00
54556;BME280;57291;37.520;15.106;2023-01-25T06:09:35;101382.63;;;8.06;100.00
54556;BME280;57291;37.520;15.106;2023-01-25T06:12:03;101387.78;;;8.07;100.00
54556;BME280;57291;37.520;15.106;2023-01-25T06:14:32;101392.69;;;8.10;100.00
54556;BME280;57291;37.520;15.106;2023-01-25T06:17:01;101393.00;;;8.19;100.00
54556;BME280;57291;37.520;15.106;2023-01-25T06:20:04;101391.94;;;8.25;100.00
54556;BME280;57291;37.520;15.106;2023-01-25T06:22:34;101384.94;;;8.29;100.00
54556;BME280;57291;37.520;15.106;2023-01-25T06:25:02;101393.38;;;8.38;100.00
54556;BME280;57291;37.520;15.106;2023-01-25T06:27:29;101381.50;;;8.44;100.00
54556;BME280;57291;37.520;15.106;2023-01-25T06:29:56;101389.66;;;8.49;100.00
54556;BME280;57291;37.520;15.106;2023-01-25T06:32:23;101385.88;;;8.55;100.00
54556;BME280;57291;37.520;15.106;2023-01-25T06:34:51;101396.22;;;8.63;100.00
54556;BME280;57291;37.520;15.106;2023-01-25T06:37:22;101394.06;;;8.71;100.00
54556;BME280;57291;37.520;15.106;2023-01-25T06:39:49;101400.56;;;8.75;100.00
54556;BME280;57291;37.520;15.106;2023-01-25T06:42:16;101411.44;;;8.85;99.47
54556;BME280;57291;37.520;15.106;2023-01-25T06:44:43;101413.66;;;8.93;98.96
54556;BME280;57291;37.520;15.106;2023-01-25T06:47:11;101420.72;;;8.99;98.50
54556;BME280;57291;37.520;15.106;2023-01-25T06:49:38;101421.28;;;9.06;98.13
54556;BME280;57291;37.520;15.106;2023-01-25T06:52:05;101418.03;;;9.09;98.00
54556;BME280;57291;37.520;15.106;2023-01-25T06:54:32;101430.75;;;9.14;97.70
54556;BME280;57291;37.520;15.106;2023-01-25T06:56:59;101432.13;;;9.16;97.76
54556;BME280;57291;37.520;15.106;2023-01-25T06:59:26;101427.28;;;9.19;97.54
54556;BME280;57291;37.520;15.106;2023-01-25T07:01:53;101432.16;;;9.27;97.02
54556;BME280;57291;37.520;15.106;2023-01-25T07:04:21;101435.16;;;9.25;96.55
54556;BME280;57291;37.520;15.106;2023-01-25T07:06:48;101434.06;;;9.26;96.24
54556;BME280;57291;37.520;15.106;2023-01-25T07:09:15;101433.78;;;9.28;96.12
54556;BME280;57291;37.520;15.106;2023-01-25T07:11:42;101437.31;;;9.28;96.20
54556;BME280;57291;37.520;15.106;2023-01-25T07:14:09;101431.63;;;9.30;95.98
54556;BME280;57291;37.520;15.106;2023-01-25T07:16:36;101429.72;;;9.30;96.06
54556;BME280;57291;37.520;15.106;2023-01-25T07:19:05;101426.75;;;9.32;96.19
54556;BME280;57291;37.520;15.106;2023-01-25T07:21:32;101418.34;;;9.38;96.43
54556;BME280;57291;37.520;15.106;2023-01-25T07:24:01;101412.91;;;9.44;96.45
54556;BME280;57291;37.520;15.106;2023-01-25T07:26:29;101413.72;;;9.49;96.33
54556;BME280;57291;37.520;15.106;2023-01-25T07:28:57;101411.56;;;9.56;96.50
54556;BME280;57291;37.520;15.106;2023-01-25T07:31:25;101411.53;;;9.67;96.60
54556;BME280;57291;37.520;15.106;2023-01-25T07:33:54;101412.09;;;9.79;96.72
54556;BME280;57291;37.520;15.106;2023-01-25T07:36:22;101412.63;;;9.91;96.76
54556;BME280;57291;37.520;15.106;2023-01-25T07:38:54;101408.53;;;10.04;96.84
54556;BME280;57291;37.520;15.106;2023-01-25T07:41:25;101419.09;;;10.16;96.34
54556;BME280;57291;37.520;15.106;2023-01-25T07:43:52;101416.63;;;10.29;95.71
54556;BME280;57291;37.520;15.106;2023-01-25T07:46:32;101412.25;;;10.39;93.98
54556;BME280;57291;37.520;15.106;2023-01-25T07:48:59;101411.41;;;10.48;93.60
54556;BME280;57291;37.520;15.106;2023-01-25T07:51:26;101414.88;;;10.59;93.61
54556;BME280;57291;37.520;15.106;2023-01-25T07:54:00;101410.25;;;10.65;93.11
54556;BME280;57291;37.520;15.106;2023-01-25T07:56:33;101404.25;;;10.73;92.55
54556;BME280;57291;37.520;15.106;2023-01-25T07:59:01;101401.78;;;10.76;91.82
54556;BME280;57291;37.520;15.106;2023-01-25T08:01:30;101399.03;;;10.82;91.35
54556;BME280;57291;37.520;15.106;2023-01-25T08:04:01;101393.25;;;10.93;91.14
54556;BME280;57291;37.520;15.106;2023-01-25T08:06:31;101385.59;;;11.00;90.63
54556;BME280;57291;37.520;15.106;2023-01-25T08:09:10;101387.44;;;11.10;90.13
54556;BME280;57291;37.520;15.106;2023-01-25T08:11:40;101379.50;;;11.14;89.39
54556;BME280;57291;37.520;15.106;2023-01-25T08:14:08;101380.31;;;11.19;89.47
54556;BME280;57291;37.520;15.106;2023-01-25T08:16:35;101390.88;;;11.26;88.49
54556;BME280;57291;37.520;15.106;2023-01-25T08:19:02;101392.47;;;11.32;88.58
54556;BME280;57291;37.520;15.106;2023-01-25T08:21:32;101399.97;;;11.45;88.79
54556;BME280;57291;37.520;15.106;2023-01-25T08:24:05;101394.09;;;11.62;88.59
54556;BME280;57291;37.520;15.106;2023-01-25T08:26:34;101398.59;;;11.77;87.49
54556;BME280;57291;37.520;15.106;2023-01-25T08:29:02;101397.38;;;11.93;87.13
54556;BME280;57291;37.520;15.106;2023-01-25T08:31:32;101398.69;;;12.01;86.05
54556;BME280;57291;37.520;15.106;2023-01-25T08:34:00;101403.69;;;12.18;85.28
54556;BME280;57291;37.520;15.106;2023-01-25T08:36:27;101407.84;;;12.34;85.37
54556;BME280;57291;37.520;15.106;2023-01-25T08:38:56;101408.41;;;12.55;84.83
54556;BME280;57291;37.520;15.106;2023-01-25T08:41:25;101410.16;;;12.70;84.05
54556;BME280;57291;37.520;15.106;2023-01-25T08:43:53;101413.19;;;12.87;83.73
54556;BME280;57291;37.520;15.106;2023-01-25T08:46:21;101412.00;;;12.94;82.68
54556;BME280;57291;37.520;15.106;2023-01-25T08:48:53;101424.34;;;13.10;82.20
54556;BME280;57291;37.520;15.106;2023-01-25T08:51:21;101422.03;;;13.17;81.77
54556;BME280;57291;37.520;15.106;2023-01-25T08:53:49;101423.59;;;13.23;80.45
54556;BME280;57291;37.520;15.106;2023-01-25T08:56:16;101416.97;;;13.29;80.02
54556;BME280;57291;37.520;15.106;2023-01-25T08:58:45;101422.28;;;13.40;79.64
54556;BME280;57291;37.520;15.106;2023-01-25T09:01:15;101428.97;;;13.47;78.90
54556;BME280;57291;37.520;15.106;2023-01-25T09:03:45;101427.47;;;13.55;78.22
54556;BME280;57291;37.520;15.106;2023-01-25T09:06:13;101431.25;;;13.59;77.71
54556;BME280;57291;37.520;15.106;2023-01-25T09:08:41;101433.38;;;13.62;77.14
54556;BME280;57291;37.520;15.106;2023-01-25T09:11:16;101437.03;;;13.71;76.37
54556;BME280;57291;37.520;15.106;2023-01-25T09:13:44;101438.06;;;13.75;75.26
54556;BME280;57291;37.520;15.106;2023-01-25T09:16:15;101437.44;;;13.65;72.80
54556;BME280;57291;37.520;15.106;2023-01-25T09:18:43;101441.50;;;13.67;73.80
54556;BME280;57291;37.520;15.106;2023-01-25T09:21:15;101435.72;;;13.69;73.73
54556;BME280;57291;37.520;15.106;2023-01-25T09:23:44;101446.19;;;13.80;73.21
54556;BME280;57291;37.520;15.106;2023-01-25T09:26:40;101447.16;;;13.71;72.16
54556;BME280;57291;37.520;15.106;2023-01-25T09:29:15;101445.66;;;13.78;73.42
54556;BME280;57291;37.520;15.106;2023-01-25T09:31:42;101438.94;;;13.90;73.86
54556;BME280;57291;37.520;15.106;2023-01-25T09:34:13;101441.34;;;13.91;73.84
54556;BME280;57291;37.520;15.106;2023-01-25T09:36:40;101441.03;;;13.79;72.53
54556;BME280;57291;37.520;15.106;2023-01-25T09:39:09;101432.31;;;13.77;73.17
54556;BME280;57291;37.520;15.106;2023-01-25T09:50:32;101423.28;;;13.06;75.24
54556;BME280;57291;37.520;15.106;2023-01-25T09:55:53;101415.69;;;13.22;75.98
54556;BME280;57291;37.520;15.106;2023-01-25T09:58:33;101414.38;;;13.38;75.12
54556;BME280;57291;37.520;15.106;2023-01-25T10:01:26;101406.28;;;13.66;73.95
54556;BME280;57291;37.520;15.106;2023-01-25T10:04:22;101406.53;;;13.97;73.51
54556;BME280;57291;37.520;15.106;2023-01-25T10:07:05;101404.94;;;14.23;72.73
54556;BME280;57291;37.520;15.106;2023-01-25T10:12:21;101399.69;;;14.41;70.49
54556;BME280;57291;37.520;15.106;2023-01-25T10:14:49;101384.59;;;14.43;71.40
54556;BME280;57291;37.520;15.106;2023-01-25T10:17:37;101392.53;;;14.59;68.48
54556;BME280;57291;37.520;15.106;2023-01-25T10:25:41;101387.72;;;14.78;68.15
54556;BME280;57291;37.520;15.106;2023-01-25T10:31:05;101368.81;;;14.54;68.68
54556;BME280;57291;37.520;15.106;2023-01-25T10:33:36;101368.47;;;14.69;69.21
54556;BME280;57291;37.520;15.106;2023-01-25T10:36:06;101364.19;;;14.77;68.64
54556;BME280;57291;37.520;15.106;2023-01-25T10:38:44;101358.31;;;14.84;68.17
54556;BME280;57291;37.520;15.106;2023-01-25T10:41:29;101346.69;;;14.78;67.57
54556;BME280;57291;37.520;15.106;2023-01-25T10:43:58;101351.59;;;14.90;66.47
54556;BME280;57291;37.520;15.106;2023-01-25T10:46:59;101354.28;;;15.04;67.71
54556;BME280;57291;37.520;15.106;2023-01-25T10:49:48;101345.41;;;14.98;66.74
54556;BME280;57291;37.520;15.106;2023-01-25T10:52:22;101345.84;;;15.14;66.11
54556;BME280;57291;37.520;15.106;2023-01-25T10:57:34;101338.38;;;15.59;65.26
54556;BME280;57291;37.520;15.106;2023-01-25T11:00:06;101330.97;;;15.29;64.46
54556;BME280;57291;37.520;15.106;2023-01-25T11:02:47;101320.78;;;14.98;66.71
54556;BME280;57291;37.520;15.106;2023-01-25T11:07:45;101320.81;;;14.84;66.70
54556;BME280;57291;37.520;15.106;2023-01-25T11:10:32;101313.81;;;14.56;68.16
54556;BME280;57291;37.520;15.106;2023-01-25T11:15:47;101305.13;;;14.26;69.86
54556;BME280;57291;37.520;15.106;2023-01-25T11:18:29;101301.91;;;13.96;71.18
54556;BME280;57291;37.520;15.106;2023-01-25T11:21:05;101294.59;;;13.78;71.09
54556;BME280;57291;37.520;15.106;2023-01-25T11:23:32;101288.94;;;13.74;72.21
54556;BME280;57291;37.520;15.106;2023-01-25T11:26:17;101282.06;;;13.63;73.16
54556;BME280;57291;37.520;15.106;2023-01-25T11:28:46;101282.84;;;13.50;73.26
54556;BME280;57291;37.520;15.106;2023-01-25T11:31:19;101269.06;;;13.41;73.25
54556;BME280;57291;37.520;15.106;2023-01-25T11:33:47;101273.53;;;13.51;73.96
54556;BME280;57291;37.520;15.106;2023-01-25T11:36:41;101281.31;;;13.44;74.68
54556;BME280;57291;37.520;15.106;2023-01-25T11:39:17;101269.13;;;13.82;74.24
54556;BME280;57291;37.520;15.106;2023-01-25T11:45:01;101261.97;;;15.18;69.49
54556;BME280;57291;37.520;15.106;2023-01-25T11:48:00;101253.31;;;15.24;67.64
54556;BME280;57291;37.520;15.106;2023-01-25T11:50:40;101246.59;;;15.08;67.59
54556;BME280;57291;37.520;15.106;2023-01-25T11:56:35;101236.41;;;14.55;69.06
54556;BME280;57291;37.520;15.106;2023-01-25T12:10:55;101218.53;;;14.71;69.06
54556;BME280;57291;37.520;15.106;2023-01-25T12:24:53;101188.47;;;14.21;72.05
54556;BME280;57291;37.520;15.106;2023-01-25T12:30:29;101177.44;;;13.49;74.76
54556;BME280;57291;37.520;15.106;2023-01-25T12:33:09;101170.34;;;13.20;74.84
54556;BME280;57291;37.520;15.106;2023-01-25T12:43:57;101156.53;;;14.30;72.28
54556;BME280;57291;37.520;15.106;2023-01-25T12:46:39;101160.91;;;14.31;72.14
54556;BME280;57291;37.520;15.106;2023-01-25T12:49:20;101150.34;;;14.39;72.13
54556;BME280;57291;37.520;15.106;2023-01-25T12:51:49;101154.31;;;14.32;71.17
54556;BME280;57291;37.520;15.106;2023-01-25T12:54:30;101147.00;;;14.42;71.51
54556;BME280;57291;37.520;15.106;2023-01-25T12:59:49;101142.91;;;14.53;70.85
54556;BME280;57291;37.520;15.106;2023-01-25T13:05:14;101137.84;;;14.46;70.09
54556;BME280;57291;37.520;15.106;2023-01-25T13:07:59;101130.97;;;14.49;71.22
54556;BME280;57291;37.520;15.106;2023-01-25T13:10:33;101128.47;;;14.39;72.22
54556;BME280;57291;37.520;15.106;2023-01-25T13:13:22;101114.00;;;14.38;72.03
54556;BME280;57291;37.520;15.106;2023-01-25T13:15:52;101119.59;;;14.33;71.01
54556;BME280;57291;37.520;15.106;2023-01-25T13:18:34;101116.41;;;14.17;71.71
54556;BME280;57291;37.520;15.106;2023-01-25T13:21:04;101096.94;;;13.96;72.82
54556;BME280;57291;37.520;15.106;2023-01-25T13:23:36;101092.56;;;13.73;74.23
54556;BME280;57291;37.520;15.106;2023-01-25T13:28:53;101092.13;;;13.29;75.15
54556;BME280;57291;37.520;15.106;2023-01-25T13:37:33;101073.63;;;13.26;74.85
54556;BME280;57291;37.520;15.106;2023-01-25T13:43:01;101077.84;;;13.32;75.26
54556;BME280;57291;37.520;15.106;2023-01-25T13:45:31;101076.03;;;13.28;76.21
54556;BME280;57291;37.520;15.106;2023-01-25T13:48:13;101075.84;;;13.38;76.44
54556;BME280;57291;37.520;15.106;2023-01-25T13:50:47;101082.31;;;13.28;77.40
54556;BME280;57291;37.520;15.106;2023-01-25T13:55:50;101091.28;;;13.15;77.20
54556;BME280;57291;37.520;15.106;2023-01-25T13:58:34;101085.13;;;13.09;77.58
54556;BME280;57291;37.520;15.106;2023-01-25T14:01:12;101084.91;;;13.06;78.24
54556;BME280;57291;37.520;15.106;2023-01-25T14:03:43;101092.41;;;13.00;79.01
54556;BME280;57291;37.520;15.106;2023-01-25T14:06:21;101090.88;;;12.94;79.53
54556;BME280;57291;37.520;15.106;2023-01-25T14:08:49;101091.56;;;12.86;79.53
54556;BME280;57291;37.520;15.106;2023-01-25T14:11:28;101091.28;;;12.87;79.93
54556;BME280;57291;37.520;15.106;2023-01-25T14:16:42;101083.69;;;12.84;80.65
54556;BME280;57291;37.520;15.106;2023-01-25T14:19:36;101084.91;;;12.78;80.51
54556;BME280;57291;37.520;15.106;2023-01-25T14:25:18;101079.25;;;12.75;79.60
54556;BME280;57291;37.520;15.106;2023-01-25T14:27:49;101079.03;;;12.71;78.90
54556;BME280;57291;37.520;15.106;2023-01-25T14:30:23;101080.97;;;12.71;78.99
54556;BME280;57291;37.520;15.106;2023-01-25T14:32:53;101082.78;;;12.75;79.31
54556;BME280;57291;37.520;15.106;2023-01-25T14:38:27;101081.06;;;12.79;78.53
54556;BME280;57291;37.520;15.106;2023-01-25T14:43:34;101062.47;;;12.81;77.21
54556;BME280;57291;37.520;15.106;2023-01-25T14:46:22;101075.13;;;12.77;77.42
54556;BME280;57291;37.520;15.106;2023-01-25T14:48:50;101076.19;;;12.76;78.12
54556;BME280;57291;37.520;15.106;2023-01-25T14:51:28;101080.16;;;12.70;78.03
54556;BME280;57291;37.520;15.106;2023-01-25T14:54:02;101077.00;;;12.63;78.13
54556;BME280;57291;37.520;15.106;2023-01-25T14:56:40;101078.41;;;12.60;78.83
54556;BME280;57291;37.520;15.106;2023-01-25T14:59:39;101082.66;;;12.66;78.95
54556;BME280;57291;37.520;15.106;2023-01-25T15:02:26;101080.53;;;12.63;78.55